Time;durP1;ratioP1;P1;durP2;ratioP2;P2;SDS_P1;SDS_P2;PMS_P1;PMS_P2;Temp;Humidity;BMP_temperature;BMP_pressure;BME280_temperature;BME280_humidity;BME280_pressure;Samples;Min_cycle;Max_cycle;Signal;HPM_P1;HPM_P2
2021/06/13 00:02:19;;;;;;;7.78;4.88;;;15.80;80.80;;;;;;4967543;28;20500;-74
2021/06/13 00:04:45;;;;;;;9.40;4.85;;;15.90;80.90;;;;;;4954619;28;20493;-74
2021/06/13 00:07:12;;;;;;;10.35;5.30;;;15.90;80.50;;;;;;4957132;28;20031;-74
2021/06/13 00:09:38;;;;;;;6.88;4.82;;;15.90;80.60;;;;;;4958866;28;20035;-74
2021/06/13 00:12:08;;;;;;;7.68;3.95;;;15.90;80.20;;;;;;4975596;28;20456;-74
2021/06/13 00:14:34;;;;;;;7.22;4.68;;;15.90;80.50;;;;;;4975147;28;20031;-74
2021/06/13 00:17:00;;;;;;;6.70;3.88;;;15.80;80.20;;;;;;4959614;28;20023;-74
2021/06/13 00:19:27;;;;;;;9.70;5.35;;;15.80;80.10;;;;;;4963981;28;20384;-74
2021/06/13 00:21:53;;;;;;;8.70;4.30;;;15.80;80.20;;;;;;4956980;28;20039;-73
2021/06/13 00:24:21;;;;;;;12.38;4.97;;;15.70;80.00;;;;;;4956558;28;20066;-73
2021/06/13 00:26:47;;;;;;;6.95;4.63;;;15.70;80.40;;;;;;4956872;28;20035;-74
2021/06/13 00:29:13;;;;;;;8.07;4.18;;;15.70;80.00;;;;;;4955798;28;20050;-73
2021/06/13 00:31:40;;;;;;;6.78;4.03;;;15.70;80.20;;;;;;4971057;28;20428;-74
2021/06/13 00:34:06;;;;;;;7.80;4.72;;;15.70;80.40;;;;;;4969129;28;20031;-74
2021/06/13 00:36:33;;;;;;;8.68;4.10;;;15.60;80.40;;;;;;4975868;28;20041;-74
2021/06/13 00:38:59;;;;;;;7.85;4.63;;;15.50;80.40;;;;;;4959863;28;20043;-73
2021/06/13 00:41:25;;;;;;;8.27;4.75;;;15.50;80.80;;;;;;4970614;28;20058;-74
2021/06/13 00:43:52;;;;;;;8.90;4.28;;;15.50;80.80;;;;;;4962414;28;20040;-75
2021/06/13 00:46:18;;;;;;;8.00;4.20;;;15.50;81.00;;;;;;4956241;28;20027;-74
2021/06/13 00:48:44;;;;;;;9.45;4.55;;;15.50;81.20;;;;;;4956937;28;20050;-74
2021/06/13 00:51:13;;;;;;;8.80;4.55;;;15.50;80.90;;;;;;4969439;28;20131;-74
2021/06/13 00:53:40;;;;;;;9.02;3.83;;;15.40;81.20;;;;;;4974376;28;20040;-74
2021/06/13 00:56:09;;;;;;;7.82;5.50;;;15.30;81.20;;;;;;4971548;28;20050;-74
2021/06/13 00:58:37;;;;;;;25.25;4.72;;;15.30;81.40;;;;;;4956682;28;20392;-73
2021/06/13 01:01:03;;;;;;;7.07;4.65;;;15.30;81.20;;;;;;4962569;28;20402;-74
2021/06/13 01:03:34;;;;;;;9.52;4.72;;;15.30;80.70;;;;;;4973635;28;20062;-73
2021/06/13 01:06:01;;;;;;;4.90;3.80;;;15.30;80.80;;;;;;4956000;28;20043;-73
2021/06/13 01:08:30;;;;;;;6.82;3.15;;;15.20;81.20;;;;;;4959209;28;20043;-74
2021/06/13 01:11:27;;;;;;;8.82;4.07;;;15.20;81.30;;;;;;4962940;28;20035;-74
2021/06/13 01:14:12;;;;;;;8.38;4.10;;;15.20;81.40;;;;;;4965256;28;20047;-74
2021/06/13 01:16:49;;;;;;;8.85;3.90;;;15.10;81.60;;;;;;4954540;28;20051;-74
2021/06/13 01:19:44;;;;;;;12.10;5.00;;;15.00;81.80;;;;;;4969941;28;20039;-73
2021/06/13 01:22:26;;;;;;;6.63;3.80;;;15.00;81.80;;;;;;4970802;28;20462;-73
2021/06/13 01:25:05;;;;;;;8.43;4.55;;;15.00;82.50;;;;;;4955772;29;20116;-75
2021/06/13 01:28:06;;;;;;;9.80;4.07;;;15.00;82.20;;;;;;4954250;28;20043;-75
2021/06/13 01:30:35;;;;;;;7.40;3.75;;;15.10;82.00;;;;;;4953719;28;20046;-74
2021/06/13 01:33:09;;;;;;;9.73;3.78;;;15.00;82.00;;;;;;4954824;28;20046;-74
2021/06/13 01:35:37;;;;;;;6.95;4.18;;;15.10;81.90;;;;;;4961598;28;20611;-74
2021/06/13 01:38:04;;;;;;;7.35;4.10;;;15.00;81.60;;;;;;4957321;28;20042;-75
2021/06/13 01:40:34;;;;;;;5.90;3.63;;;15.00;81.70;;;;;;4970183;28;20043;-75
2021/06/13 01:43:02;;;;;;;8.00;3.50;;;14.90;82.30;;;;;;4978384;28;20047;-74
2021/06/13 01:45:33;;;;;;;9.30;4.78;;;14.80;83.00;;;;;;4954610;28;20050;-74
2021/06/13 01:48:00;;;;;;;10.25;4.85;;;14.70;83.30;;;;;;4972204;28;20389;-75
2021/06/13 01:50:30;;;;;;;8.48;4.38;;;14.60;84.30;;;;;;4956450;28;20043;-74
2021/06/13 01:53:05;;;;;;;5.53;4.18;;;14.50;85.30;;;;;;4970506;28;20473;-74
2021/06/13 01:55:32;;;;;;;9.27;4.00;;;14.40;86.00;;;;;;4954717;28;20032;-74
2021/06/13 01:58:02;;;;;;;11.63;4.95;;;14.30;87.20;;;;;;4955953;28;20031;-74
2021/06/13 02:00:48;;;;;;;8.80;5.10;;;14.20;88.70;;;;;;4954698;28;20051;-74
2021/06/13 02:03:19;;;;;;;9.40;4.43;;;14.10;89.50;;;;;;4954682;28;20602;-74
2021/06/13 02:05:55;;;;;;;9.65;4.30;;;14.00;90.50;;;;;;4969676;28;20039;-74
2021/06/13 02:08:24;;;;;;;6.40;4.43;;;13.90;91.10;;;;;;4958858;28;20082;-74
2021/06/13 02:11:04;;;;;;;8.93;5.00;;;13.70;91.90;;;;;;4959726;28;20066;-74
2021/06/13 02:13:32;;;;;;;5.80;4.05;;;13.60;93.20;;;;;;4971534;28;20073;-74
2021/06/13 02:16:05;;;;;;;10.63;5.03;;;13.60;93.40;;;;;;4962279;28;20043;-74
2021/06/13 02:18:33;;;;;;;9.48;5.13;;;13.60;93.40;;;;;;4961224;28;20467;-75
2021/06/13 02:21:05;;;;;;;10.20;6.15;;;13.50;93.90;;;;;;4972464;28;20135;-74
2021/06/13 02:23:32;;;;;;;11.35;4.30;;;13.50;94.10;;;;;;4971386;28;20043;-74
2021/06/13 02:26:01;;;;;;;11.60;5.03;;;13.50;94.20;;;;;;4963310;28;20118;-75
2021/06/13 02:28:32;;;;;;;6.40;4.38;;;13.40;94.40;;;;;;4968813;28;20043;-75
2021/06/13 02:31:01;;;;;;;7.80;4.38;;;13.50;94.20;;;;;;4954376;28;20059;-75
2021/06/13 02:33:30;;;;;;;6.88;4.03;;;13.40;94.80;;;;;;4970471;28;20038;-74
2021/06/13 02:36:03;;;;;;;10.43;6.05;;;13.50;95.00;;;;;;4963549;28;20043;-74
2021/06/13 02:38:29;;;;;;;7.55;4.28;;;13.50;94.70;;;;;;4968028;28;20053;-74
2021/06/13 02:40:57;;;;;;;7.18;4.30;;;13.40;94.80;;;;;;4944317;29;20047;-74
2021/06/13 02:43:24;;;;;;;6.70;4.22;;;13.20;95.70;;;;;;4959526;28;20050;-74
2021/06/13 02:45:51;;;;;;;9.43;5.63;;;13.20;96.10;;;;;;4966068;28;20070;-74
2021/06/13 02:48:18;;;;;;;10.65;4.72;;;13.20;96.60;;;;;;4963028;28;20393;-74
2021/06/13 02:50:47;;;;;;;9.93;5.80;;;13.20;96.90;;;;;;4959143;28;20046;-75
2021/06/13 02:53:26;;;;;;;9.63;4.88;;;13.10;97.30;;;;;;4957164;28;20039;-74
2021/06/13 02:55:57;;;;;;;10.27;5.25;;;12.80;97.70;;;;;;4970141;28;20043;-74
2021/06/13 02:58:43;;;;;;;7.25;5.25;;;12.70;98.80;;;;;;4970315;28;20039;-74
2021/06/13 03:01:15;;;;;;;11.80;5.47;;;12.80;99.20;;;;;;4967505;28;20059;-73
2021/06/13 03:03:42;;;;;;;10.95;5.22;;;12.80;99.20;;;;;;4953902;28;20481;-74
2021/06/13 03:06:16;;;;;;;10.32;5.20;;;12.90;99.80;;;;;;4949338;29;20167;-73
2021/06/13 03:08:43;;;;;;;9.63;5.47;;;12.80;99.90;;;;;;4958796;28;20111;-74
2021/06/13 03:11:11;;;;;;;11.07;5.15;;;12.80;99.90;;;;;;4968633;28;20035;-74
2021/06/13 03:13:41;;;;;;;8.48;4.70;;;12.70;99.90;;;;;;4951984;28;20038;-73
2021/06/13 03:16:09;;;;;;;9.90;5.60;;;12.70;99.90;;;;;;4953431;28;20054;-73
2021/06/13 03:18:37;;;;;;;10.60;5.55;;;12.60;99.90;;;;;;4953528;28;20027;-74
2021/06/13 03:21:05;;;;;;;9.80;5.38;;;12.50;99.90;;;;;;4953104;29;20373;-74
2021/06/13 03:23:33;;;;;;;8.15;5.68;;;12.50;99.90;;;;;;4971070;28;20043;-74
2021/06/13 03:26:02;;;;;;;10.57;5.53;;;12.50;99.90;;;;;;4965748;28;20051;-74
2021/06/13 03:28:33;;;;;;;10.10;5.72;;;12.30;99.90;;;;;;4961043;28;20404;-74
2021/06/13 03:31:01;;;;;;;8.27;5.60;;;12.20;99.90;;;;;;4980165;28;20051;-74
2021/06/13 03:33:29;;;;;;;9.63;5.57;;;12.20;99.90;;;;;;4970690;28;20051;-74
2021/06/13 03:35:57;;;;;;;11.60;5.13;;;12.10;99.90;;;;;;4969895;28;20039;-74
2021/06/13 03:38:25;;;;;;;8.35;5.18;;;12.20;99.90;;;;;;4960355;28;20378;-74
2021/06/13 03:40:53;;;;;;;8.52;5.40;;;12.20;99.90;;;;;;4971327;28;20039;-74
2021/06/13 03:43:21;;;;;;;12.10;6.35;;;12.20;99.90;;;;;;4956837;28;20062;-74
2021/06/13 03:45:48;;;;;;;11.43;6.20;;;12.30;99.90;;;;;;4956945;28;20507;-75
2021/06/13 03:48:16;;;;;;;9.05;5.30;;;12.40;99.90;;;;;;4965542;28;20043;-75
2021/06/13 03:50:43;;;;;;;9.07;5.38;;;12.40;99.90;;;;;;4973260;28;20057;-75
2021/06/13 03:53:10;;;;;;;14.13;5.13;;;12.40;99.90;;;;;;4957374;28;20058;-74
2021/06/13 03:55:36;;;;;;;10.98;6.05;;;12.70;99.90;;;;;;4956710;28;20039;-74
2021/06/13 03:58:04;;;;;;;6.75;4.78;;;12.70;99.90;;;;;;4967074;28;20405;-74
2021/06/13 04:00:32;;;;;;;5.80;4.95;;;12.60;99.90;;;;;;4973832;28;20385;-73
2021/06/13 04:03:00;;;;;;;12.35;5.45;;;12.60;99.90;;;;;;4970096;28;20470;-74
2021/06/13 04:05:31;;;;;;;10.35;4.82;;;12.50;99.90;;;;;;4967822;28;20047;-74
2021/06/13 04:08:00;;;;;;;7.35;5.65;;;12.60;99.90;;;;;;4957141;28;20043;-74
2021/06/13 04:10:26;;;;;;;7.75;5.07;;;12.70;99.90;;;;;;4956146;28;20504;-74
2021/06/13 04:12:54;;;;;;;8.52;4.88;;;12.90;99.90;;;;;;4957117;28;20042;-74
2021/06/13 04:15:21;;;;;;;8.70;4.85;;;13.10;99.90;;;;;;4956902;28;20058;-74
2021/06/13 04:17:48;;;;;;;8.02;4.55;;;13.30;99.90;;;;;;4956909;28;20039;-74
2021/06/13 04:20:14;;;;;;;7.93;4.25;;;14.00;99.90;;;;;;4956877;28;20032;-74
2021/06/13 04:22:42;;;;;;;7.50;3.58;;;15.20;99.90;;;;;;4966473;28;20031;-75
2021/06/13 04:25:11;;;;;;;7.25;3.95;;;16.50;93.90;;;;;;4956139;28;20054;-75
2021/06/13 04:27:39;;;;;;;4.90;2.60;;;17.00;91.70;;;;;;4955954;28;20381;-74
2021/06/13 04:30:07;;;;;;;4.28;2.88;;;17.20;90.80;;;;;;4956096;28;20390;-74
2021/06/13 04:32:35;;;;;;;5.78;3.17;;;17.60;89.40;;;;;;4956715;28;20412;-75
2021/06/13 04:35:02;;;;;;;5.47;2.92;;;17.90;86.70;;;;;;4976097;28;20047;-75
2021/06/13 04:37:29;;;;;;;6.68;3.63;;;17.90;85.30;;;;;;4974558;28;20034;-75
2021/06/13 04:39:55;;;;;;;3.92;2.75;;;17.50;86.60;;;;;;4958988;28;20039;-75
2021/06/13 04:42:22;;;;;;;5.63;2.90;;;16.70;89.80;;;;;;4975578;28;20380;-75
2021/06/13 04:44:48;;;;;;;6.25;2.88;;;16.40;90.50;;;;;;4957549;28;20036;-75
2021/06/13 04:47:15;;;;;;;6.95;2.95;;;16.60;90.30;;;;;;4956303;28;20031;-75
2021/06/13 04:49:44;;;;;;;6.75;3.15;;;16.60;89.70;;;;;;4955955;28;20038;-75
2021/06/13 04:52:17;;;;;;;5.65;2.70;;;17.00;88.10;;;;;;4956373;28;20043;-75
2021/06/13 04:54:43;;;;;;;6.38;3.17;;;17.60;85.30;;;;;;4955889;28;20458;-75
2021/06/13 04:57:31;;;;;;;5.13;2.88;;;18.00;82.40;;;;;;4956281;28;20035;-75
2021/06/13 04:59:57;;;;;;;4.78;3.05;;;17.80;83.30;;;;;;4956248;28;20031;-75
2021/06/13 05:02:24;;;;;;;4.53;2.58;;;17.80;83.10;;;;;;4956311;28;20469;-75
2021/06/13 05:04:53;;;;;;;10.65;3.85;;;17.60;83.60;;;;;;4973007;28;20039;-74
2021/06/13 05:07:20;;;;;;;7.28;2.70;;;17.50;84.20;;;;;;4964251;28;20663;-74
2021/06/13 05:09:46;;;;;;;4.78;3.00;;;17.50;84.50;;;;;;4975665;28;20043;-74
2021/06/13 05:12:12;;;;;;;5.82;3.00;;;16.80;86.90;;;;;;4958304;28;20054;-74
2021/06/13 05:14:39;;;;;;;6.28;3.17;;;17.10;86.10;;;;;;4971038;28;20057;-74
2021/06/13 05:17:05;;;;;;;10.00;3.10;;;17.00;86.20;;;;;;4965294;28;20050;-74
2021/06/13 05:19:32;;;;;;;7.15;3.22;;;17.20;85.40;;;;;;4973940;28;20380;-74
2021/06/13 05:21:58;;;;;;;10.20;3.17;;;17.50;84.40;;;;;;4959826;28;20035;-74
2021/06/13 05:24:25;;;;;;;6.38;3.08;;;17.90;83.30;;;;;;4962407;28;20050;-73
2021/06/13 05:26:51;;;;;;;6.20;3.13;;;18.30;80.50;;;;;;4970560;28;20035;-75
2021/06/13 05:29:17;;;;;;;5.25;3.15;;;18.60;79.50;;;;;;4973439;28;20034;-73
2021/06/13 05:31:44;;;;;;;8.23;2.88;;;18.50;79.70;;;;;;4970115;28;20046;-73
2021/06/13 05:34:10;;;;;;;6.03;2.63;;;18.50;78.70;;;;;;4955376;28;20075;-74
2021/06/13 05:36:36;;;;;;;5.25;2.78;;;18.60;77.40;;;;;;4954338;28;20043;-75
2021/06/13 05:39:03;;;;;;;5.65;2.75;;;18.70;77.90;;;;;;4959522;28;20461;-75
2021/06/13 05:41:29;;;;;;;7.18;2.78;;;19.10;77.30;;;;;;4968386;28;20389;-76
2021/06/13 05:43:57;;;;;;;5.32;2.85;;;19.40;75.10;;;;;;4955157;28;20508;-73
2021/06/13 05:46:24;;;;;;;7.63;2.80;;;19.00;74.30;;;;;;4955111;28;20035;-73
2021/06/13 05:48:50;;;;;;;6.13;2.63;;;18.90;75.10;;;;;;4955382;28;20031;-73
2021/06/13 05:51:16;;;;;;;6.03;2.72;;;18.30;76.10;;;;;;4954881;28;20046;-75
2021/06/13 05:53:42;;;;;;;6.82;2.78;;;18.80;73.70;;;;;;4954768;28;20039;-74
2021/06/13 05:56:09;;;;;;;5.15;2.60;;;19.20;73.00;;;;;;4966894;28;20026;-73
2021/06/13 05:58:35;;;;;;;8.93;2.58;;;18.90;73.60;;;;;;4956697;28;20027;-75
2021/06/13 06:01:02;;;;;;;7.28;3.03;;;18.80;73.30;;;;;;4955097;28;20393;-76
2021/06/13 06:03:28;;;;;;;5.43;2.10;;;19.90;70.60;;;;;;4953905;28;20039;-75
2021/06/13 06:05:55;;;;;;;5.45;2.47;;;20.60;67.30;;;;;;4961084;28;20058;-76
2021/06/13 06:08:21;;;;;;;5.68;2.63;;;20.30;67.70;;;;;;4970630;28;20037;-74
2021/06/13 06:10:49;;;;;;;6.20;2.63;;;19.20;69.90;;;;;;4963526;28;20042;-74
2021/06/13 06:13:15;;;;;;;5.97;2.40;;;19.10;70.80;;;;;;4954774;28;20038;-75
2021/06/13 06:15:42;;;;;;;4.63;2.22;;;19.20;70.30;;;;;;4954270;28;20035;-76
2021/06/13 06:18:08;;;;;;;5.53;2.03;;;19.90;67.50;;;;;;4969702;28;20038;-75
2021/06/13 06:20:35;;;;;;;4.13;2.33;;;20.20;64.80;;;;;;4956659;28;20031;-75
2021/06/13 06:23:02;;;;;;;7.50;2.85;;;20.20;65.40;;;;;;4960295;28;20054;-76
2021/06/13 06:25:28;;;;;;;4.75;2.42;;;20.10;64.90;;;;;;4967490;28;20492;-74
2021/06/13 06:27:56;;;;;;;7.20;2.10;;;20.40;65.00;;;;;;4954751;28;20066;-75
2021/06/13 06:30:26;;;;;;;4.78;2.45;;;20.10;65.10;;;;;;4965064;28;21640;-73
2021/06/13 06:32:52;;;;;;;7.70;2.83;;;19.40;66.30;;;;;;4955682;28;20031;-74
2021/06/13 06:35:19;;;;;;;4.43;2.10;;;19.70;66.40;;;;;;4972273;28;20034;-74
2021/06/13 06:37:46;;;;;;;6.57;2.00;;;19.90;66.40;;;;;;4955202;28;20039;-73
2021/06/13 06:40:13;;;;;;;5.72;2.15;;;19.40;67.20;;;;;;4968937;28;20039;-73
2021/06/13 06:42:41;;;;;;;4.85;2.40;;;19.60;67.10;;;;;;4970559;28;20141;-72
2021/06/13 06:45:10;;;;;;;7.65;2.97;;;19.60;66.60;;;;;;4958031;28;20045;-74
2021/06/13 06:47:36;;;;;;;5.18;2.20;;;19.80;66.20;;;;;;4971930;28;20043;-75
2021/06/13 06:50:04;;;;;;;6.43;2.00;;;20.40;63.30;;;;;;4969822;28;20029;-74
2021/06/13 06:52:30;;;;;;;8.65;2.60;;;20.90;62.80;;;;;;4963402;28;20038;-74
2021/06/13 06:54:58;;;;;;;3.53;2.00;;;21.00;62.00;;;;;;4965394;28;20041;-73
2021/06/13 06:57:25;;;;;;;6.07;2.30;;;21.10;61.70;;;;;;4971180;28;20073;-73
2021/06/13 06:59:51;;;;;;;8.15;2.90;;;20.30;64.40;;;;;;4969128;28;20045;-73
2021/06/13 07:02:17;;;;;;;4.25;2.30;;;20.00;65.00;;;;;;4968978;28;20062;-73
2021/06/13 07:04:45;;;;;;;5.15;2.40;;;18.60;67.30;;;;;;4969430;28;20030;-73
2021/06/13 07:07:11;;;;;;;4.75;2.42;;;18.40;69.00;;;;;;4967035;28;20034;-74
2021/06/13 07:09:37;;;;;;;4.70;2.40;;;19.00;66.70;;;;;;4967847;28;20035;-74
2021/06/13 07:12:04;;;;;;;5.28;2.80;;;18.70;67.90;;;;;;4967908;28;20061;-73
2021/06/13 07:14:30;;;;;;;10.68;2.83;;;18.10;68.90;;;;;;4968475;28;20424;-72
2021/06/13 07:16:56;;;;;;;5.03;2.47;;;17.90;69.50;;;;;;4960253;28;20030;-72
2021/06/13 07:19:23;;;;;;;4.47;2.33;;;17.90;70.50;;;;;;4955864;28;20038;-73
2021/06/13 07:21:50;;;;;;;8.25;2.97;;;17.80;70.50;;;;;;4970241;28;20623;-73
2021/06/13 07:24:16;;;;;;;7.25;2.50;;;18.50;68.60;;;;;;4963488;28;20032;-73
2021/06/13 07:26:42;;;;;;;6.22;2.35;;;19.40;66.80;;;;;;4965012;28;20152;-72
2021/06/13 07:29:08;;;;;;;5.13;2.53;;;20.00;65.50;;;;;;4967302;28;20031;-73
2021/06/13 07:31:35;;;;;;;6.18;2.78;;;21.40;61.50;;;;;;4969610;28;20457;-73
2021/06/13 07:34:01;;;;;;;5.80;2.58;;;20.60;63.10;;;;;;4969646;28;20058;-73
2021/06/13 07:36:27;;;;;;;4.43;2.30;;;20.50;64.20;;;;;;4971492;28;20046;-73
2021/06/13 07:38:53;;;;;;;6.40;2.50;;;20.60;62.80;;;;;;4971694;28;20041;-73
2021/06/13 07:41:20;;;;;;;5.57;2.55;;;20.40;63.80;;;;;;4958075;28;20045;-73
2021/06/13 07:43:46;;;;;;;5.13;3.00;;;20.40;63.20;;;;;;4969382;28;20039;-73
2021/06/13 07:46:12;;;;;;;4.45;2.47;;;21.00;62.20;;;;;;4971267;28;20034;-73
2021/06/13 07:48:38;;;;;;;4.75;2.35;;;22.50;58.30;;;;;;4971288;28;20385;-72
2021/06/13 07:51:06;;;;;;;6.00;2.60;;;22.70;58.70;;;;;;4967007;28;20038;-73
2021/06/13 07:53:33;;;;;;;6.03;3.08;;;22.30;58.20;;;;;;4963125;28;20051;-72
2021/06/13 07:55:59;;;;;;;6.43;2.28;;;21.80;57.80;;;;;;4975015;28;20043;-73
2021/06/13 07:58:25;;;;;;;4.70;2.20;;;19.60;60.90;;;;;;4968202;28;20111;-73
2021/06/13 08:00:52;;;;;;;7.85;2.45;;;18.50;64.10;;;;;;4970720;28;20043;-72
2021/06/13 08:03:18;;;;;;;8.38;2.88;;;18.70;64.40;;;;;;4959951;28;20039;-73
2021/06/13 08:05:44;;;;;;;8.60;3.08;;;18.50;65.40;;;;;;4966171;28;20043;-73
2021/06/13 08:08:10;;;;;;;4.50;2.55;;;18.80;64.40;;;;;;4967358;28;20050;-73
2021/06/13 08:10:39;;;;;;;6.10;2.20;;;19.70;62.40;;;;;;4965360;28;20035;-72
2021/06/13 08:13:05;;;;;;;7.40;2.58;;;19.60;62.30;;;;;;4960368;28;20461;-72
2021/06/13 08:15:32;;;;;;;7.88;2.53;;;19.80;62.40;;;;;;4954175;28;20465;-72
2021/06/13 08:17:58;;;;;;;6.13;2.38;;;21.70;58.20;;;;;;4966760;28;20430;-73
2021/06/13 08:20:26;;;;;;;5.18;2.58;;;21.40;58.10;;;;;;4954796;28;20528;-73
2021/06/13 08:22:55;;;;;;;5.95;2.20;;;22.10;56.50;;;;;;4960505;28;20063;-73
2021/06/13 08:25:22;;;;;;;5.43;2.35;;;20.80;59.20;;;;;;4956251;28;20034;-72
2021/06/13 08:27:48;;;;;;;7.20;2.97;;;20.80;60.30;;;;;;4970619;28;20032;-73
2021/06/13 08:30:17;;;;;;;5.18;2.60;;;20.20;60.90;;;;;;4969740;28;20050;-73
2021/06/13 08:32:44;;;;;;;5.63;2.47;;;21.30;60.00;;;;;;4971042;28;20369;-73
2021/06/13 08:35:12;;;;;;;4.97;2.10;;;21.70;57.30;;;;;;4974014;28;20051;-72
2021/06/13 08:37:39;;;;;;;3.88;2.13;;;22.40;56.80;;;;;;4962470;28;20074;-73
2021/06/13 08:40:08;;;;;;;5.55;2.40;;;22.10;57.70;;;;;;4966696;28;20384;-73
2021/06/13 08:42:35;;;;;;;5.55;2.30;;;21.60;57.70;;;;;;4969993;28;20047;-72
2021/06/13 08:45:07;;;;;;;7.35;2.42;;;21.20;57.60;;;;;;4965775;28;20035;-73
2021/06/13 08:47:34;;;;;;;5.45;2.25;;;22.30;56.00;;;;;;4963363;28;20047;-72
2021/06/13 08:50:00;;;;;;;4.43;2.22;;;22.30;54.30;;;;;;4964666;28;20385;-73
2021/06/13 08:52:26;;;;;;;5.65;2.50;;;20.70;57.20;;;;;;4960079;28;20039;-74
2021/06/13 08:54:53;;;;;;;6.38;2.35;;;20.70;58.10;;;;;;4966066;28;20034;-73
2021/06/13 08:57:19;;;;;;;5.00;3.13;;;22.50;54.70;;;;;;4969947;28;20042;-74
2021/06/13 08:59:46;;;;;;;6.78;2.35;;;22.70;54.20;;;;;;4971139;28;20038;-73
2021/06/13 09:02:14;;;;;;;6.47;2.80;;;22.60;55.20;;;;;;4964680;28;20041;-74
2021/06/13 09:04:43;;;;;;;8.68;2.42;;;21.20;56.50;;;;;;4970039;28;20038;-75
2021/06/13 09:07:24;;;;;;;4.47;2.73;;;21.30;56.70;;;;;;4973274;28;20456;-74
2021/06/13 09:09:52;;;;;;;4.35;1.92;;;20.90;57.10;;;;;;4955921;28;20111;-74
2021/06/13 09:12:19;;;;;;;5.05;2.35;;;20.60;57.60;;;;;;4964974;28;20034;-74
2021/06/13 09:14:49;;;;;;;3.65;2.22;;;20.70;57.40;;;;;;4967833;28;20454;-73
2021/06/13 09:17:29;;;;;;;7.18;3.20;;;21.60;56.40;;;;;;4967251;28;20047;-72
2021/06/13 09:20:04;;;;;;;;;;;21.50;56.80;;;;;;4970959;28;20037;-72
2021/06/13 09:22:30;;;;;;;5.10;2.17;;;22.70;56.50;;;;;;4971663;28;19925;-72
2021/06/13 09:25:06;;;;;;;6.20;2.55;;;22.00;54.40;;;;;;4971304;28;20027;-73
2021/06/13 09:27:32;;;;;;;7.68;2.63;;;21.80;55.00;;;;;;4968697;28;20031;-73
2021/06/13 09:29:58;;;;;;;7.38;2.58;;;21.70;55.50;;;;;;4971607;28;20389;-74
2021/06/13 09:32:25;;;;;;;4.38;1.98;;;21.30;57.30;;;;;;4963639;28;20043;-74
2021/06/13 09:35:29;;;;;;;9.82;3.08;;;21.40;55.90;;;;;;4969899;28;20043;-72
2021/06/13 09:38:13;;;;;;;10.45;2.78;;;22.00;56.70;;;;;;4946555;28;20120;-73
2021/06/13 09:40:42;;;;;;;5.72;2.85;;;21.90;55.90;;;;;;4970569;28;20049;-72
2021/06/13 09:43:20;;;;;;;6.45;2.30;;;21.20;57.40;;;;;;4969817;28;20038;-73
2021/06/13 09:45:49;;;;;;;7.28;3.13;;;21.10;56.40;;;;;;4958772;28;20038;-73
2021/06/13 09:48:16;;;;;;;6.43;3.00;;;21.10;57.90;;;;;;4972920;28;20035;-74
2021/06/13 09:50:45;;;;;;;5.05;2.10;;;22.00;56.10;;;;;;4962356;28;20035;-74
2021/06/13 09:53:27;;;;;;;6.10;2.53;;;21.80;55.40;;;;;;4962424;28;20469;-73
2021/06/13 09:56:19;;;;;;;9.32;3.63;;;21.50;56.10;;;;;;4963980;28;20376;-74
2021/06/13 09:58:54;;;;;;;7.15;2.85;;;21.10;56.00;;;;;;4965009;28;20042;-74
2021/06/13 10:01:23;;;;;;;7.18;2.55;;;21.50;56.60;;;;;;4971760;28;20042;-74
2021/06/13 10:03:50;;;;;;;6.88;2.55;;;21.50;56.10;;;;;;4964937;28;20039;-73
2021/06/13 10:06:19;;;;;;;7.00;2.45;;;21.90;55.40;;;;;;4966926;28;20047;-73
2021/06/13 10:08:47;;;;;;;5.18;2.03;;;22.20;54.40;;;;;;4963591;28;20055;-73
2021/06/13 10:11:14;;;;;;;5.80;2.35;;;22.00;54.80;;;;;;4972727;28;20503;-73
2021/06/13 10:13:52;;;;;;;6.55;2.83;;;21.60;55.00;;;;;;4972424;28;20039;-72
2021/06/13 10:16:26;;;;;;;4.97;2.33;;;21.50;55.30;;;;;;4955706;28;20047;-74
2021/06/13 10:18:57;;;;;;;7.72;2.30;;;21.70;55.10;;;;;;4961207;28;20637;-74
2021/06/13 10:21:26;;;;;;;3.38;2.17;;;21.50;55.30;;;;;;4964251;28;20039;-74
2021/06/13 10:23:55;;;;;;;7.85;2.58;;;21.50;54.80;;;;;;4969237;28;20392;-75
2021/06/13 10:26:21;;;;;;;8.15;2.45;;;21.10;56.20;;;;;;4970292;28;20523;-77
2021/06/13 10:28:48;;;;;;;6.13;2.92;;;20.90;57.00;;;;;;4968698;28;20023;-76
2021/06/13 10:31:14;;;;;;;5.20;2.55;;;21.40;55.20;;;;;;4967791;28;20046;-74
2021/06/13 10:33:41;;;;;;;8.57;2.75;;;21.00;55.60;;;;;;4960835;28;20050;-75
2021/06/13 10:36:08;;;;;;;5.53;2.53;;;21.00;55.70;;;;;;4962355;28;20035;-75
2021/06/13 10:38:35;;;;;;;4.50;1.88;;;21.20;55.60;;;;;;4961811;28;20481;-76
2021/06/13 10:41:03;;;;;;;5.20;2.40;;;21.10;54.70;;;;;;4964184;28;20058;-72
2021/06/13 10:43:30;;;;;;;8.43;2.67;;;20.60;56.70;;;;;;4965332;28;20054;-78
2021/06/13 10:46:04;;;;;;;5.10;2.08;;;21.10;55.80;;;;;;4967297;28;20377;-74
2021/06/13 10:48:44;;;;;;;6.80;2.47;;;21.70;54.40;;;;;;4953872;28;20496;-74
2021/06/13 10:51:32;;;;;;;7.15;2.53;;;21.50;55.00;;;;;;4966430;28;20062;-75
2021/06/13 10:54:25;;;;;;;5.85;2.40;;;21.30;54.30;;;;;;4958968;28;20027;-74
2021/06/13 10:56:54;;;;;;;6.63;2.42;;;21.20;54.60;;;;;;4965190;28;20038;-75
2021/06/13 10:59:21;;;;;;;6.95;2.78;;;21.40;55.80;;;;;;4964746;28;20409;-74
2021/06/13 11:01:58;;;;;;;5.28;2.22;;;21.90;54.50;;;;;;4952335;28;20057;-75
2021/06/13 11:04:44;;;;;;;5.18;2.10;;;21.80;54.30;;;;;;4954107;28;20397;-75
2021/06/13 11:07:11;;;;;;;7.00;2.45;;;21.30;53.60;;;;;;4953553;28;20047;-73
2021/06/13 11:10:02;;;;;;;7.65;2.65;;;21.30;54.20;;;;;;4953661;28;20031;-74
2021/06/13 11:12:47;;;;;;;9.25;2.97;;;21.40;54.10;;;;;;4953196;28;20050;-73
2021/06/13 11:15:27;;;;;;;6.63;2.72;;;21.70;54.10;;;;;;4959317;28;20040;-74
2021/06/13 11:17:59;;;;;;;7.75;2.75;;;22.10;54.00;;;;;;4952370;28;20031;-74
2021/06/13 11:20:51;;;;;;;5.00;2.60;;;21.60;54.70;;;;;;4969731;28;20027;-73
2021/06/13 11:23:21;;;;;;;6.60;2.90;;;21.60;55.30;;;;;;4953096;28;20058;-74
2021/06/13 11:25:49;;;;;;;5.72;2.08;;;21.40;54.60;;;;;;4953371;28;20042;-74
2021/06/13 11:28:18;;;;;;;6.95;2.70;;;21.30;54.90;;;;;;4954060;28;20039;-74
2021/06/13 11:30:51;;;;;;;4.80;2.20;;;21.10;54.60;;;;;;4961129;28;20043;-73
2021/06/13 11:33:38;;;;;;;5.10;2.50;;;21.50;54.40;;;;;;4953719;28;20059;-73
2021/06/13 11:36:23;;;;;;;7.20;2.80;;;21.90;54.50;;;;;;4953166;28;20051;-75
2021/06/13 11:38:54;;;;;;;5.80;2.58;;;22.00;53.40;;;;;;4964461;28;20027;-75
2021/06/13 11:41:35;;;;;;;5.28;2.55;;;22.10;53.80;;;;;;4958319;28;20070;-76
2021/06/13 11:44:05;;;;;;;6.82;2.80;;;22.20;53.70;;;;;;4953471;28;20052;-76
2021/06/13 11:46:34;;;;;;;6.30;3.17;;;21.90;53.60;;;;;;4967056;28;20039;-74
2021/06/13 11:49:03;;;;;;;6.60;2.33;;;21.90;53.20;;;;;;4959639;28;20039;-74
2021/06/13 11:51:30;;;;;;;8.88;3.17;;;21.60;54.60;;;;;;4971989;28;20054;-75
2021/06/13 11:54:06;;;;;;;5.28;2.10;;;21.50;53.90;;;;;;4959512;28;20463;-74
2021/06/13 11:59:21;;;;;;;7.00;2.60;;;21.70;54.20;;;;;;4960895;28;20516;-74
2021/06/13 12:01:54;;;;;;;5.07;2.20;;;22.00;53.90;;;;;;4962434;28;20038;-75
2021/06/13 12:04:22;;;;;;;8.52;2.33;;;22.30;53.80;;;;;;4956780;28;20043;-74
2021/06/13 12:06:49;;;;;;;7.03;3.05;;;22.50;53.50;;;;;;4962654;28;20043;-74
2021/06/13 12:09:19;;;;;;;4.82;2.38;;;22.50;53.70;;;;;;4974272;28;20508;-73
2021/06/13 12:11:52;;;;;;;4.07;2.27;;;22.60;52.50;;;;;;4961563;28;20409;-74
2021/06/13 12:14:26;;;;;;;5.82;2.20;;;22.50;52.40;;;;;;4972185;28;20321;-74
2021/06/13 12:17:03;;;;;;;6.22;2.42;;;22.60;51.00;;;;;;4966655;28;20492;-74
2021/06/13 12:19:39;;;;;;;5.97;2.55;;;22.60;51.80;;;;;;4956288;28;20039;-75
2021/06/13 12:27:34;;;;;;;6.60;2.20;;;22.30;51.50;;;;;;4974314;28;20410;-76
2021/06/13 12:30:12;;;;;;;5.05;2.22;;;22.30;51.90;;;;;;4974748;28;20051;-75
2021/06/13 12:32:39;;;;;;;7.13;2.13;;;22.10;51.30;;;;;;4956150;28;20513;-76
2021/06/13 12:35:13;;;;;;;5.85;2.38;;;22.50;50.40;;;;;;4964721;28;20369;-76
2021/06/13 12:37:41;;;;;;;7.93;2.63;;;22.30;50.60;;;;;;4964647;28;20031;-73
2021/06/13 12:40:11;;;;;;;5.30;2.10;;;22.20;51.20;;;;;;4968228;28;20051;-76
2021/06/13 12:42:40;;;;;;;4.73;1.80;;;22.50;50.20;;;;;;4968060;28;20067;-74
2021/06/13 12:45:15;;;;;;;4.97;2.22;;;22.80;49.10;;;;;;4963570;28;20299;-75
2021/06/13 12:47:44;;;;;;;4.43;2.10;;;23.00;48.90;;;;;;4956196;28;20031;-74
2021/06/13 12:50:21;;;;;;;5.18;2.25;;;22.80;49.80;;;;;;4975069;28;20046;-74
2021/06/13 12:52:49;;;;;;;4.15;2.00;;;23.10;49.00;;;;;;4956252;29;20031;-74
2021/06/13 12:55:16;;;;;;;7.75;2.13;;;22.90;48.80;;;;;;4956065;28;20484;-74
2021/06/13 12:57:45;;;;;;;3.70;1.88;;;22.80;48.90;;;;;;4956022;29;20031;-73
2021/06/13 13:00:15;;;;;;;6.65;2.03;;;22.80;48.80;;;;;;4963814;28;20047;-74
2021/06/13 13:02:43;;;;;;;5.55;2.38;;;22.80;49.00;;;;;;4988832;28;20050;-75
2021/06/13 13:05:18;;;;;;;5.28;2.30;;;23.10;49.20;;;;;;4967316;28;20050;-77
2021/06/13 13:07:47;;;;;;;4.10;1.58;;;22.90;48.40;;;;;;4955858;28;20362;-74